createdAt,value
2017-04-01T00:01:08.840Z,1008.14
2017-04-01T00:02:19.118Z,1008.14
2017-04-01T00:03:29.078Z,1008.12
2017-04-01T00:04:39.344Z,1008.12
2017-04-01T00:05:49.915Z,1008.07
2017-04-01T00:07:00.189Z,1008.04
2017-04-01T00:08:10.472Z,1008.04
2017-04-01T00:09:20.739Z,1008.06
2017-04-01T00:10:31.019Z,1008.06
2017-04-01T00:11:41.549Z,1008.03
2017-04-01T00:12:51.520Z,1008.04
2017-04-01T00:14:01.799Z,1008.08
2017-04-01T00:15:12.073Z,1008.08
2017-04-01T00:16:22.347Z,1008.03
2017-04-01T00:17:32.935Z,1008.04
2017-04-01T00:18:43.210Z,1008.03
2017-04-01T00:19:53.477Z,1007.98
2017-04-01T00:21:03.756Z,1007.98
2017-04-01T00:22:14.024Z,1007.97
2017-04-01T00:23:24.619Z,1007.96
2017-04-01T00:24:34.582Z,1007.96
2017-04-01T00:25:44.851Z,1007.93
2017-04-01T00:26:55.127Z,1007.92
2017-04-01T00:28:05.414Z,1007.9
2017-04-01T00:29:15.669Z,1007.94
2017-04-01T00:30:25.937Z,1007.91
2017-04-01T00:31:36.204Z,1007.89
2017-04-01T00:32:46.158Z,1007.86
2017-04-01T00:33:56.122Z,1007.84
2017-04-01T00:35:06.689Z,1007.86
2017-04-01T00:36:16.677Z,1007.82
2017-04-01T00:37:26.950Z,1007.83
2017-04-01T00:38:36.918Z,1007.81
2017-04-01T00:39:47.191Z,1007.8
2017-04-01T00:40:57.763Z,1007.79
2017-04-01T00:42:07.733Z,1007.8
2017-04-01T00:43:18.022Z,1007.8
2017-04-01T00:44:28.289Z,1007.78
2017-04-01T00:45:38.559Z,1007.8
2017-04-01T00:46:48.839Z,1007.79
2017-04-01T00:47:59.162Z,1007.78
2017-04-01T00:49:09.432Z,1007.81
2017-04-01T00:50:19.706Z,1007.81
2017-04-01T00:51:29.996Z,1007.83
2017-04-01T00:52:40.568Z,1007.79
2017-04-01T00:53:50.844Z,1007.87
2017-04-01T00:55:01.123Z,1007.8
2017-04-01T00:56:11.078Z,1007.81
2017-04-01T00:57:21.369Z,1007.79
2017-04-01T00:58:31.942Z,1007.79
2017-04-01T00:59:42.222Z,1007.76
2017-04-01T01:00:52.492Z,1007.72
2017-04-01T01:02:02.460Z,1007.76
2017-04-01T01:03:12.742Z,1007.8
2017-04-01T01:04:23.008Z,1007.77
2017-04-01T01:05:32.661Z,1007.82
2017-04-01T01:06:42.617Z,1007.8
2017-04-01T01:07:52.576Z,1007.76
2017-04-01T01:09:02.847Z,1007.79
2017-04-01T01:10:13.462Z,1007.79
2017-04-01T01:11:23.733Z,1007.75
2017-04-01T01:12:34.010Z,1007.73
2017-04-01T01:13:44.293Z,1007.7
2017-04-01T01:14:54.254Z,1007.71
2017-04-01T01:16:04.822Z,1007.7
2017-04-01T01:17:15.085Z,1007.68
2017-04-01T01:18:25.066Z,1007.66
2017-04-01T01:19:35.029Z,1007.64
2017-04-01T01:20:44.987Z,1007.67
2017-04-01T01:21:54.890Z,1007.67
2017-04-01T01:23:05.159Z,1007.65
2017-04-01T01:24:15.126Z,1007.65
2017-04-01T01:25:25.086Z,1007.65
2017-04-01T01:26:35.356Z,1007.64
2017-04-01T01:27:45.623Z,1007.65
2017-04-01T01:28:55.898Z,1007.66
2017-04-01T01:30:05.540Z,1007.63
2017-04-01T01:31:15.500Z,1007.6
2017-04-01T01:32:25.886Z,1007.66
2017-04-01T01:33:36.147Z,1007.63
2017-04-01T01:34:45.808Z,1007.63
2017-04-01T01:35:56.099Z,1007.65
2017-04-01T01:37:06.373Z,1007.63
2017-04-01T01:38:16.646Z,1007.65
2017-04-01T01:39:27.221Z,1007.67
2017-04-01T01:40:37.495Z,1007.63
2017-04-01T01:41:47.457Z,1007.65
2017-04-01T01:42:57.721Z,1007.65
2017-04-01T01:44:07.692Z,1007.61
2017-04-01T01:45:17.904Z,1007.6
2017-04-01T01:46:28.471Z,1007.58
2017-04-01T01:47:38.456Z,1007.57
2017-04-01T01:48:48.412Z,1007.55
2017-04-01T01:49:58.385Z,1007.55
2017-04-01T01:51:08.921Z,1007.54
2017-04-01T01:52:18.879Z,1007.52
2017-04-01T01:53:29.143Z,1007.55
2017-04-01T01:54:39.417Z,1007.54
2017-04-01T01:55:49.691Z,1007.52
2017-04-01T01:56:59.907Z,1007.54
2017-04-01T01:58:10.176Z,1007.52
2017-04-01T01:59:20.142Z,1007.52
2017-04-01T02:00:30.415Z,1007.5
2017-04-01T02:01:40.837Z,1007.51
2017-04-01T02:02:51.095Z,1007.5
2017-04-01T02:04:00.891Z,1007.5
2017-04-01T02:05:10.229Z,1007.51
2017-04-01T02:06:20.188Z,1007.5
2017-04-01T02:07:30.511Z,1007.48
2017-04-01T02:08:40.767Z,1007.47
2017-04-01T02:09:51.064Z,1007.52
2017-04-01T02:11:01.339Z,1007.49
2017-04-01T02:12:11.602Z,1007.51
2017-04-01T02:13:21.882Z,1007.44
2017-04-01T02:14:32.457Z,1007.45
2017-04-01T02:15:42.735Z,1007.41
2017-04-01T02:16:53.011Z,1007.4
2017-04-01T02:18:03.275Z,1007.42
2017-04-01T02:19:12.923Z,1007.4
2017-04-01T02:20:22.883Z,1007.41
2017-04-01T02:21:32.837Z,1007.42
2017-04-01T02:22:43.135Z,1007.44
2017-04-01T02:23:53.404Z,1007.42
2017-04-01T02:25:03.362Z,1007.42
2017-04-01T02:26:13.904Z,1007.43
2017-04-01T02:27:24.177Z,1007.45
2017-04-01T02:28:34.693Z,1007.46
2017-04-01T02:29:44.666Z,1007.46
2017-04-01T02:30:54.937Z,1007.48
2017-04-01T02:32:05.462Z,1007.47
2017-04-01T02:33:15.424Z,1007.45
2017-04-01T02:34:25.377Z,1007.51
2017-04-01T02:35:35.656Z,1007.5
2017-04-01T02:36:45.619Z,1007.5
2017-04-01T02:37:55.831Z,1007.52
2017-04-01T02:39:06.114Z,1007.49
2017-04-01T02:40:16.376Z,1007.49
2017-04-01T02:41:26.029Z,1007.51
2017-04-01T02:42:36.301Z,1007.5
2017-04-01T02:43:46.251Z,1007.49
2017-04-01T02:44:56.527Z,1007.51
2017-04-01T02:46:06.165Z,1007.5
2017-04-01T02:47:16.437Z,1007.52
2017-04-01T02:48:26.391Z,1007.51
2017-04-01T02:49:36.912Z,1007.54
2017-04-01T02:50:46.875Z,1007.56
2017-04-01T02:51:56.871Z,1007.53
2017-04-01T02:53:07.186Z,1007.56
2017-04-01T02:54:17.458Z,1007.54
2017-04-01T02:55:28.041Z,1007.51
2017-04-01T02:56:38.314Z,1007.52
2017-04-01T02:57:48.581Z,1007.51
2017-04-01T02:58:58.600Z,1007.52
2017-04-01T03:00:08.562Z,1007.47
2017-04-01T03:01:19.130Z,1007.52
2017-04-01T03:02:29.095Z,1007.5
2017-04-01T03:03:39.382Z,1007.5
2017-04-01T03:04:49.659Z,1007.5
2017-04-01T03:05:59.312Z,1007.48
2017-04-01T03:07:09.946Z,1007.5
2017-04-01T03:08:19.905Z,1007.51
2017-04-01T03:09:29.869Z,1007.54
2017-04-01T03:10:40.139Z,1007.54
2017-04-01T03:11:50.407Z,1007.53
2017-04-01T03:13:00.974Z,1007.58
2017-04-01T03:14:11.237Z,1007.56
2017-04-01T03:15:21.514Z,1007.55
2017-04-01T03:16:31.787Z,1007.51
2017-04-01T03:17:42.172Z,1007.49
2017-04-01T03:18:52.777Z,1007.49
2017-04-01T03:20:03.056Z,1007.47
2017-04-01T03:21:12.711Z,1007.46
2017-04-01T03:22:22.980Z,1007.45
2017-04-01T03:23:33.280Z,1007.49
2017-04-01T03:24:43.848Z,1007.46
2017-04-01T03:25:53.816Z,1007.46
2017-04-01T03:27:04.079Z,1007.49
2017-04-01T03:28:14.357Z,1007.52
2017-04-01T03:29:24.630Z,1007.53
2017-04-01T03:30:34.854Z,1007.48
2017-04-01T03:31:45.120Z,1007.5
2017-04-01T03:32:55.074Z,1007.47
2017-04-01T03:34:05.358Z,1007.49
2017-04-01T03:35:15.637Z,1007.5
2017-04-01T03:36:26.151Z,1007.47
2017-04-01T03:37:36.436Z,1007.48
2017-04-01T03:38:46.707Z,1007.48
2017-04-01T03:39:56.656Z,1007.49
2017-04-01T03:41:06.627Z,1007.51
2017-04-01T03:42:16.894Z,1007.47
2017-04-01T03:43:27.166Z,1007.47
2017-04-01T03:44:37.121Z,1007.47
2017-04-01T03:45:47.397Z,1007.43
2017-04-01T03:46:57.683Z,1007.45
2017-04-01T03:48:07.943Z,1007.43
2017-04-01T03:49:18.211Z,1007.46
2017-04-01T03:50:28.178Z,1007.44
2017-04-01T03:51:38.448Z,1007.47
2017-04-01T03:52:48.724Z,1007.51
2017-04-01T03:53:59.303Z,1007.47
2017-04-01T03:55:09.259Z,1007.52
2017-04-01T03:56:19.531Z,1007.49
2017-04-01T03:57:29.179Z,1007.49
2017-04-01T03:58:39.144Z,1007.48
2017-04-01T03:59:49.092Z,1007.45
2017-04-01T04:00:59.367Z,1007.44
2017-04-01T04:02:09.333Z,1007.45
2017-04-01T04:03:19.615Z,1007.42
2017-04-01T04:04:29.885Z,1007.48
2017-04-01T04:05:40.454Z,1007.47
2017-04-01T04:06:50.106Z,1007.52
2017-04-01T04:08:00.382Z,1007.53
2017-04-01T04:09:10.657Z,1007.54
2017-04-01T04:10:20.318Z,1007.54
2017-04-01T04:11:30.912Z,1007.53
2017-04-01T04:12:41.210Z,1007.51
2017-04-01T04:13:51.483Z,1007.58
2017-04-01T04:15:01.748Z,1007.56
2017-04-01T04:16:11.710Z,1007.53
2017-04-01T04:17:22.238Z,1007.57
2017-04-01T04:18:32.510Z,1007.58
2017-04-01T04:19:42.780Z,1007.55
2017-04-01T04:20:53.051Z,1007.56
2017-04-01T04:22:03.263Z,1007.58
2017-04-01T04:23:13.847Z,1007.58
2017-04-01T04:24:23.808Z,1007.61
2017-04-01T04:25:33.774Z,1007.57
2017-04-01T04:26:43.732Z,1007.61
2017-04-01T04:27:53.692Z,1007.62
2017-04-01T04:29:03.952Z,1007.66
2017-04-01T04:30:14.228Z,1007.66
2017-04-01T04:31:24.496Z,1007.7
2017-04-01T04:32:34.472Z,1007.68
2017-04-01T04:33:44.746Z,1007.7
2017-04-01T04:34:55.283Z,1007.7
2017-04-01T04:36:05.240Z,1007.7
2017-04-01T04:37:15.221Z,1007.69
2017-04-01T04:38:25.198Z,1007.7
2017-04-01T04:39:35.158Z,1007.71
2017-04-01T04:40:45.734Z,1007.71
2017-04-01T04:41:55.739Z,1007.75
2017-04-01T04:43:05.698Z,1007.75
2017-04-01T04:44:15.962Z,1007.71
2017-04-01T04:45:26.231Z,1007.74
2017-04-01T04:46:36.803Z,1007.72
2017-04-01T04:47:47.092Z,1007.69
2017-04-01T04:48:57.056Z,1007.69
2017-04-01T04:50:07.030Z,1007.69
2017-04-01T04:51:17.301Z,1007.7
2017-04-01T04:52:27.612Z,1007.76
2017-04-01T04:53:37.907Z,1007.7
2017-04-01T04:54:48.176Z,1007.7
2017-04-01T04:55:58.459Z,1007.7
2017-04-01T04:57:08.728Z,1007.76
2017-04-01T04:58:19.333Z,1007.74
2017-04-01T04:59:29.600Z,1007.75
2017-04-01T05:00:39.256Z,1007.74
2017-04-01T05:01:49.220Z,1007.75
2017-04-01T05:02:59.176Z,1007.78
2017-04-01T05:04:09.753Z,1007.77
2017-04-01T05:05:19.713Z,1007.82
2017-04-01T05:06:29.365Z,1007.78
2017-04-01T05:07:39.641Z,1007.79
2017-04-01T05:08:49.912Z,1007.83
2017-04-01T05:10:00.175Z,1007.85
2017-04-01T05:11:10.143Z,1007.83
2017-04-01T05:12:20.111Z,1007.8
2017-04-01T05:13:30.385Z,1007.83
2017-04-01T05:14:40.658Z,1007.81
2017-04-01T05:15:51.230Z,1007.78
2017-04-01T05:17:01.509Z,1007.77
2017-04-01T05:18:11.471Z,1007.76
2017-04-01T05:19:21.434Z,1007.8
2017-04-01T05:20:31.712Z,1007.82
2017-04-01T05:21:42.280Z,1007.83
2017-04-01T05:22:52.570Z,1007.87
2017-04-01T05:24:02.539Z,1007.84
2017-04-01T05:25:12.496Z,1007.88
2017-04-01T05:26:22.468Z,1007.89
2017-04-01T05:27:33.043Z,1007.85
2017-04-01T05:28:43.312Z,1007.89
2017-04-01T05:29:53.816Z,1007.88
2017-04-01T05:31:04.087Z,1007.92
2017-04-01T05:32:13.733Z,1007.97
2017-04-01T05:33:24.351Z,1007.98
2017-04-01T05:34:34.722Z,1007.98
2017-04-01T05:35:44.688Z,1008.04
2017-04-01T05:36:54.962Z,1008.02
2017-04-01T05:38:05.243Z,1008.03
2017-04-01T05:39:15.574Z,1007.98
2017-04-01T05:40:25.570Z,1008.05
2017-04-01T05:41:35.534Z,1008
2017-04-01T05:42:45.802Z,1008.01
2017-04-01T05:43:56.090Z,1008.02
2017-04-01T05:45:06.666Z,1008.02
2017-04-01T05:46:16.629Z,1008.02
2017-04-01T05:47:26.896Z,1008
2017-04-01T05:48:36.886Z,1008
2017-04-01T05:49:47.156Z,1008.01
2017-04-01T05:50:57.734Z,1007.99
2017-04-01T05:52:08.006Z,1008.01
2017-04-01T05:53:18.310Z,1008
2017-04-01T05:54:28.585Z,1008
2017-04-01T05:55:38.854Z,1007.96
2017-04-01T05:56:49.112Z,1007.99
2017-04-01T05:57:59.377Z,1007.98
2017-04-01T05:59:09.645Z,1007.96
2017-04-01T06:00:19.907Z,1008.02
2017-04-01T06:01:30.184Z,1007.98
2017-04-01T06:02:40.890Z,1008.01
2017-04-01T06:03:50.853Z,1008.02
2017-04-01T06:05:01.129Z,1008.01
2017-04-01T06:06:11.407Z,1008.06
2017-04-01T06:07:21.365Z,1008.03
2017-04-01T06:08:31.945Z,1008.08
2017-04-01T06:09:42.006Z,1008.06
2017-04-01T06:10:51.972Z,1008.02
2017-04-01T06:12:02.252Z,1008.05
2017-04-01T06:13:12.578Z,1008.02
2017-04-01T06:14:23.150Z,1008.03
2017-04-01T06:15:33.424Z,1008.03
2017-04-01T06:16:43.703Z,1008.08
2017-04-01T06:17:53.991Z,1008.07
2017-04-01T06:19:03.965Z,1008.06
2017-04-01T06:20:14.541Z,1008.05
2017-04-01T06:21:24.821Z,1008.05
2017-04-01T06:22:34.790Z,1008.03
2017-04-01T06:23:45.055Z,1008.06
2017-04-01T06:24:55.328Z,1008.03
2017-04-01T06:26:05.902Z,1008.07
2017-04-01T06:27:15.871Z,1008.08
2017-04-01T06:28:26.136Z,1008.08
2017-04-01T06:29:36.415Z,1008.07
2017-04-01T06:30:46.692Z,1008.02
2017-04-01T06:31:56.950Z,1008.05
2017-04-01T06:33:07.236Z,1008.05
2017-04-01T06:34:17.567Z,1008.02
2017-04-01T06:35:27.897Z,1008
2017-04-01T06:36:38.171Z,1008.02
2017-04-01T06:37:48.749Z,1007.95
2017-04-01T06:38:59.019Z,1007.98
2017-04-01T06:40:08.985Z,1008
2017-04-01T06:41:19.297Z,1007.99
2017-04-01T06:42:29.594Z,1007.96
2017-04-01T06:43:39.849Z,1007.99
2017-04-01T06:44:49.870Z,1008.04
2017-04-01T06:45:59.832Z,1007.99
2017-04-01T06:47:09.812Z,1008.02
2017-04-01T06:48:19.795Z,1008.01
2017-04-01T06:49:30.119Z,1008.01
2017-04-01T06:50:40.094Z,1007.99
2017-04-01T06:51:50.379Z,1008.01
2017-04-01T06:53:00.662Z,1008.01
2017-04-01T06:54:10.934Z,1008.03
2017-04-01T06:55:21.502Z,1008.03
2017-04-01T06:56:31.780Z,1008.04
2017-04-01T06:57:42.069Z,1008.03
2017-04-01T06:58:52.352Z,1008.06
2017-04-01T07:00:02.633Z,1008.04
2017-04-01T07:01:13.217Z,1008.08
2017-04-01T07:02:23.483Z,1008.07
2017-04-01T07:03:33.517Z,1008.07
2017-04-01T07:04:43.484Z,1008.08
2017-04-01T07:05:53.773Z,1008.05
2017-04-01T07:07:04.046Z,1008.1
2017-04-01T07:08:14.323Z,1008.07
2017-04-01T07:09:24.599Z,1008.05
2017-04-01T07:10:34.875Z,1008.08
2017-04-01T07:11:45.160Z,1008.08
2017-04-01T07:12:55.734Z,1008.04
2017-04-01T07:14:05.705Z,1008.05
2017-04-01T07:15:15.979Z,1008.08
2017-04-01T07:16:26.489Z,1008.06
2017-04-01T07:17:36.768Z,1008.02
2017-04-01T07:18:46.718Z,1008.01
2017-04-01T07:19:56.699Z,1008.03
2017-04-01T07:21:06.987Z,1008.07
2017-04-01T07:22:17.264Z,1008.06
2017-04-01T07:23:27.581Z,1008.06
2017-04-01T07:24:37.850Z,1008.02
2017-04-01T07:25:48.128Z,1008.1
2017-04-01T07:26:58.405Z,1008.06
2017-04-01T07:28:08.362Z,1008.09
2017-04-01T07:29:18.650Z,1008.1
2017-04-01T07:30:29.259Z,1008.14
2017-04-01T07:31:39.540Z,1008.12
2017-04-01T07:32:49.842Z,1008.14
2017-04-01T07:33:59.499Z,1008.15
2017-04-01T07:35:09.800Z,1008.17
2017-04-01T07:36:20.382Z,1008.2
2017-04-01T07:37:30.664Z,1008.2
2017-04-01T07:38:40.937Z,1008.23
2017-04-01T07:39:51.223Z,1008.19
2017-04-01T07:41:01.502Z,1008.16
2017-04-01T07:42:12.120Z,1008.19
2017-04-01T07:43:22.398Z,1008.19
2017-04-01T07:44:32.672Z,1008.23
2017-04-01T07:45:42.958Z,1008.24
2017-04-01T07:46:52.613Z,1008.22
2017-04-01T07:48:02.874Z,1008.25
2017-04-01T07:49:12.838Z,1008.22
2017-04-01T07:50:23.122Z,1008.21
2017-04-01T07:51:33.098Z,1008.21
2017-04-01T07:52:43.369Z,1008.22
2017-04-01T07:53:53.953Z,1008.26
2017-04-01T07:55:04.234Z,1008.23
2017-04-01T07:56:14.515Z,1008.26
2017-04-01T07:57:24.470Z,1008.22
2017-04-01T07:58:34.450Z,1008.22
2017-04-01T07:59:45.037Z,1008.21
2017-04-01T08:00:55.316Z,1008.2
2017-04-01T08:02:05.601Z,1008.19
2017-04-01T08:03:15.886Z,1008.23
2017-04-01T08:04:25.850Z,1008.22
2017-04-01T08:05:36.432Z,1008.19
2017-04-01T08:06:46.405Z,1008.23
2017-04-01T08:07:56.064Z,1008.23
2017-04-01T08:09:06.034Z,1008.21
2017-04-01T08:10:16.000Z,1008.19
2017-04-01T08:11:26.577Z,1008.2
2017-04-01T08:12:36.860Z,1008.25
2017-04-01T08:13:46.823Z,1008.23
2017-04-01T08:14:57.104Z,1008.22
2017-04-01T08:16:06.756Z,1008.23
2017-04-01T08:17:17.030Z,1008.27
2017-04-01T08:18:27.303Z,1008.28
2017-04-01T08:19:37.586Z,1008.25
2017-04-01T08:20:47.867Z,1008.2
2017-04-01T08:21:58.150Z,1008.21
2017-04-01T08:23:08.742Z,1008.19
2017-04-01T08:24:19.026Z,1008.18
2017-04-01T08:25:29.307Z,1008.18
2017-04-01T08:26:39.585Z,1008.18
2017-04-01T08:27:49.862Z,1008.18
2017-04-01T08:29:00.124Z,1008.2
2017-04-01T08:30:10.405Z,1008.16
2017-04-01T08:31:20.385Z,1008.17
2017-04-01T08:32:30.352Z,1008.18
2017-04-01T08:33:40.631Z,1008.17
2017-04-01T08:34:51.224Z,1008.19
2017-04-01T08:36:01.509Z,1008.17
2017-04-01T08:37:11.788Z,1008.17
2017-04-01T08:38:22.110Z,1008.15
2017-04-01T08:39:32.069Z,1008.16
2017-04-01T08:40:42.360Z,1008.15
2017-04-01T08:41:52.656Z,1008.14
2017-04-01T08:43:02.633Z,1008.13
2017-04-01T08:44:12.911Z,1008.1
2017-04-01T08:45:22.568Z,1008.08
2017-04-01T08:46:32.838Z,1008.08
2017-04-01T08:47:43.113Z,1008.11
2017-04-01T08:48:53.394Z,1008.07
2017-04-01T08:50:03.686Z,1008.06
2017-04-01T08:51:13.974Z,1008.06
2017-04-01T08:52:24.239Z,1008.06
2017-04-01T08:53:34.214Z,1008.08
2017-04-01T08:54:44.181Z,1008.03
2017-04-01T08:55:54.475Z,1008.02
2017-04-01T08:57:05.015Z,1008.03
2017-04-01T08:58:15.610Z,1008.01
2017-04-01T08:59:25.886Z,1008.01
2017-04-01T09:00:36.220Z,1008
2017-04-01T09:01:46.498Z,1007.95
2017-04-01T09:02:56.775Z,1007.96
2017-04-01T09:04:07.359Z,1007.95
2017-04-01T09:05:17.341Z,1007.94
2017-04-01T09:06:27.632Z,1007.95
2017-04-01T09:07:37.907Z,1007.94
2017-04-01T09:08:47.874Z,1007.92
2017-04-01T09:09:58.470Z,1007.96
2017-04-01T09:11:08.754Z,1007.92
2017-04-01T09:12:19.030Z,1007.95
2017-04-01T09:13:29.324Z,1007.99
2017-04-01T09:14:39.291Z,1007.97
2017-04-01T09:15:49.559Z,1007.96
2017-04-01T09:16:59.846Z,1007.92
2017-04-01T09:18:10.116Z,1007.91
2017-04-01T09:19:20.402Z,1007.92
2017-04-01T09:20:30.723Z,1007.94
2017-04-01T09:21:40.671Z,1007.93
2017-04-01T09:22:50.677Z,1007.91
2017-04-01T09:24:00.962Z,1007.92
2017-04-01T09:25:11.241Z,1007.94
2017-04-01T09:26:21.527Z,1007.96
2017-04-01T09:27:32.117Z,1007.91
2017-04-01T09:28:42.212Z,1007.89
2017-04-01T09:29:52.172Z,1007.88
2017-04-01T09:31:02.483Z,1007.92
2017-04-01T09:32:12.456Z,1007.9
2017-04-01T09:33:23.032Z,1007.93
2017-04-01T09:34:33.312Z,1007.94
2017-04-01T09:35:43.593Z,1007.91
2017-04-01T09:36:53.893Z,1007.92
2017-04-01T09:38:04.166Z,1007.93
2017-04-01T09:39:14.490Z,1007.9
2017-04-01T09:40:24.453Z,1007.94
2017-04-01T09:41:34.734Z,1007.89
2017-04-01T09:42:44.705Z,1007.9
2017-04-01T09:43:54.995Z,1007.89
2017-04-01T09:45:05.261Z,1007.87
2017-04-01T09:46:15.263Z,1007.89
2017-04-01T09:47:24.315Z,1007.88
2017-04-01T09:48:34.303Z,1007.88
2017-04-01T09:49:44.270Z,1007.9
2017-04-01T09:50:54.566Z,1007.9
2017-04-01T09:52:04.844Z,1007.89
2017-04-01T09:53:15.123Z,1007.85
2017-04-01T09:54:25.100Z,1007.89
2017-04-01T09:55:34.762Z,1007.86
2017-04-01T09:56:45.362Z,1007.92
2017-04-01T09:57:55.678Z,1007.88
2017-04-01T09:59:05.970Z,1007.88
2017-04-01T10:00:16.246Z,1007.87
2017-04-01T10:01:26.515Z,1007.89
2017-04-01T10:02:37.103Z,1007.85
2017-04-01T10:03:47.393Z,1007.83
2017-04-01T10:04:57.365Z,1007.84
2017-04-01T10:06:07.646Z,1007.84
2017-04-01T10:07:17.363Z,1007.8
2017-04-01T10:08:27.951Z,1007.84
2017-04-01T10:09:38.233Z,1007.81
2017-04-01T10:10:48.517Z,1007.85
2017-04-01T10:11:58.823Z,1007.85
2017-04-01T10:13:09.176Z,1007.86
2017-04-01T10:14:19.476Z,1007.83
2017-04-01T10:15:29.449Z,1007.83
2017-04-01T10:16:39.729Z,1007.82
2017-04-01T10:17:49.070Z,1007.79
2017-04-01T10:18:59.364Z,1007.77
2017-04-01T10:20:09.630Z,1007.79
2017-04-01T10:21:19.911Z,1007.79
2017-04-01T10:22:30.198Z,1007.73
2017-04-01T10:23:40.476Z,1007.77
2017-04-01T10:24:50.757Z,1007.75
2017-04-01T10:26:01.337Z,1007.77
2017-04-01T10:27:11.631Z,1007.75
2017-04-01T10:28:21.596Z,1007.75
2017-04-01T10:29:31.570Z,1007.74
2017-04-01T10:30:41.852Z,1007.75
2017-04-01T10:31:52.137Z,1007.76
2017-04-01T10:33:02.106Z,1007.7
2017-04-01T10:34:11.771Z,1007.75
2017-04-01T10:35:22.112Z,1007.71
2017-04-01T10:36:32.083Z,1007.69
2017-04-01T10:37:42.676Z,1007.75
2017-04-01T10:38:52.638Z,1007.68
2017-04-01T10:40:02.927Z,1007.69
2017-04-01T10:41:12.901Z,1007.68
2017-04-01T10:42:23.183Z,1007.64
2017-04-01T10:43:33.766Z,1007.67
2017-04-01T10:44:44.059Z,1007.68
2017-04-01T10:45:54.360Z,1007.63
2017-04-01T10:47:04.345Z,1007.62
2017-04-01T10:48:14.624Z,1007.6
2017-04-01T10:49:24.591Z,1007.58
2017-04-01T10:50:34.884Z,1007.59
2017-04-01T10:51:44.856Z,1007.55
2017-04-01T10:52:55.156Z,1007.6
2017-04-01T10:54:05.452Z,1007.56
2017-04-01T10:55:15.718Z,1007.51
2017-04-01T10:56:25.685Z,1007.53
2017-04-01T10:57:35.658Z,1007.52
2017-04-01T10:58:45.639Z,1007.55
2017-04-01T10:59:55.922Z,1007.55
2017-04-01T11:01:06.523Z,1007.58
2017-04-01T11:02:16.812Z,1007.58
2017-04-01T11:03:26.786Z,1007.55
2017-04-01T11:04:36.441Z,1007.53
2017-04-01T11:05:46.724Z,1007.53
2017-04-01T11:06:57.013Z,1007.5
2017-04-01T11:08:07.305Z,1007.5
2017-04-01T11:09:17.284Z,1007.48
2017-04-01T11:10:27.244Z,1007.49
2017-04-01T11:11:37.210Z,1007.48
2017-04-01T11:12:47.804Z,1007.51
2017-04-01T11:13:57.782Z,1007.49
2017-04-01T11:15:07.766Z,1007.43
2017-04-01T11:16:18.053Z,1007.43
2017-04-01T11:17:28.344Z,1007.45
2017-04-01T11:18:38.937Z,1007.44
2017-04-01T11:19:48.918Z,1007.42
2017-04-01T11:20:59.205Z,1007.41
2017-04-01T11:22:09.504Z,1007.44
2017-04-01T11:23:19.812Z,1007.43
2017-04-01T11:24:30.134Z,1007.45
2017-04-01T11:25:40.106Z,1007.44
2017-04-01T11:26:50.067Z,1007.44
2017-04-01T11:28:00.039Z,1007.42
2017-04-01T11:29:10.324Z,1007.43
2017-04-01T11:30:20.925Z,1007.38
2017-04-01T11:31:31.213Z,1007.36
2017-04-01T11:32:41.491Z,1007.36
2017-04-01T11:33:51.516Z,1007.37
2017-04-01T11:35:01.825Z,1007.35
2017-04-01T11:36:12.425Z,1007.34
2017-04-01T11:37:22.717Z,1007.34
2017-04-01T11:38:32.695Z,1007.32
2017-04-01T11:39:42.986Z,1007.3
2017-04-01T11:40:53.275Z,1007.33
2017-04-01T11:42:03.260Z,1007.33
2017-04-01T11:43:13.555Z,1007.3
2017-04-01T11:44:23.835Z,1007.25
2017-04-01T11:45:34.112Z,1007.23
2017-04-01T11:46:44.443Z,1007.2
2017-04-01T11:47:55.026Z,1007.23
2017-04-01T11:49:05.320Z,1007.21
2017-04-01T11:50:15.334Z,1007.21
2017-04-01T11:51:25.635Z,1007.22
2017-04-01T11:52:35.917Z,1007.16
2017-04-01T11:53:46.177Z,1007.16
2017-04-01T11:54:55.532Z,1007.12
2017-04-01T11:56:05.500Z,1007.14
2017-04-01T11:57:15.803Z,1007.14
2017-04-01T11:58:26.088Z,1007.14
2017-04-01T11:59:36.668Z,1007.12
2017-04-01T12:00:46.956Z,1007.13
2017-04-01T12:01:56.934Z,1007.09
2017-04-01T12:03:07.211Z,1007.12
2017-04-01T12:04:17.202Z,1007.12
2017-04-01T12:05:27.476Z,1007.12
2017-04-01T12:06:37.755Z,1007.13
2017-04-01T12:07:48.035Z,1007.08
2017-04-01T12:08:58.002Z,1007.1
2017-04-01T12:10:08.288Z,1007.08
2017-04-01T12:11:18.817Z,1007.06
2017-04-01T12:12:29.094Z,1007.01
2017-04-01T12:13:39.390Z,1007.01
2017-04-01T12:14:49.363Z,1007.03
2017-04-01T12:15:59.642Z,1006.99
2017-04-01T12:17:09.920Z,1007
2017-04-01T12:18:20.202Z,1006.99
2017-04-01T12:19:30.493Z,1007
2017-04-01T12:20:40.472Z,1007
2017-04-01T12:21:50.764Z,1006.99
2017-04-01T12:23:01.351Z,1006.96
2017-04-01T12:24:11.317Z,1006.95
2017-04-01T12:25:21.598Z,1006.96
2017-04-01T12:26:31.882Z,1006.95
2017-04-01T12:27:41.867Z,1006.93
2017-04-01T12:28:52.396Z,1006.91
2017-04-01T12:30:02.368Z,1006.89
2017-04-01T12:31:12.824Z,1006.89
2017-04-01T12:32:22.796Z,1006.89
2017-04-01T12:33:32.465Z,1006.9
2017-04-01T12:34:47.318Z,1006.9
2017-04-01T12:35:57.597Z,1006.89
2017-04-01T12:37:07.899Z,1006.86
2017-04-01T12:38:18.202Z,1006.88
2017-04-01T12:39:28.187Z,1006.88
2017-04-01T12:40:38.723Z,1006.9
2017-04-01T12:41:49.018Z,1006.92
2017-04-01T12:42:59.307Z,1006.86
2017-04-01T12:44:09.578Z,1006.83
2017-04-01T12:45:19.233Z,1006.87
2017-04-01T12:46:29.772Z,1006.84
2017-04-01T12:47:40.043Z,1006.84
2017-04-01T12:48:50.328Z,1006.79
2017-04-01T12:50:00.611Z,1006.82
2017-04-01T12:51:10.596Z,1006.77
2017-04-01T12:52:21.120Z,1006.8
2017-04-01T12:53:30.786Z,1006.79
2017-04-01T12:54:40.766Z,1006.79
2017-04-01T12:55:50.743Z,1006.77
2017-04-01T12:57:00.723Z,1006.79
2017-04-01T12:58:11.256Z,1006.76
2017-04-01T12:59:21.271Z,1006.72
2017-04-01T13:00:31.554Z,1006.74
2017-04-01T13:01:41.852Z,1006.73
2017-04-01T13:02:52.143Z,1006.7
2017-04-01T13:04:02.724Z,1006.69
2017-04-01T13:05:13.029Z,1006.64
2017-04-01T13:06:23.311Z,1006.65
2017-04-01T13:07:33.278Z,1006.59
2017-04-01T13:08:43.561Z,1006.61
2017-04-01T13:09:54.148Z,1006.6
2017-04-01T13:11:04.122Z,1006.58
2017-04-01T13:12:14.088Z,1006.57
2017-04-01T13:13:23.741Z,1006.55
2017-04-01T13:14:34.028Z,1006.54
2017-04-01T13:15:44.621Z,1006.49
2017-04-01T13:16:54.913Z,1006.46
2017-04-01T13:18:05.202Z,1006.48
2017-04-01T13:19:15.490Z,1006.44
2017-04-01T13:20:25.501Z,1006.45
2017-04-01T13:21:36.047Z,1006.45
2017-04-01T13:22:46.327Z,1006.45
2017-04-01T13:23:56.308Z,1006.39
2017-04-01T13:25:06.588Z,1006.38
2017-04-01T13:26:16.871Z,1006.35
2017-04-01T13:27:27.407Z,1006.33
2017-04-01T13:28:37.689Z,1006.37
2017-04-01T13:29:47.974Z,1006.32
2017-04-01T13:30:58.250Z,1006.32
2017-04-01T13:32:08.543Z,1006.28
2017-04-01T13:33:18.820Z,1006.29
2017-04-01T13:34:29.087Z,1006.28
2017-04-01T13:35:39.058Z,1006.28
2017-04-01T13:36:49.356Z,1006.21
2017-04-01T13:37:59.633Z,1006.26
2017-04-01T13:39:10.169Z,1006.25
2017-04-01T13:40:20.452Z,1006.21
2017-04-01T13:41:30.113Z,1006.24
2017-04-01T13:42:40.079Z,1006.24
2017-04-01T13:43:50.362Z,1006.22
2017-04-01T13:45:00.632Z,1006.2
2017-04-01T13:46:10.623Z,1006.2
2017-04-01T13:47:20.906Z,1006.21
2017-04-01T13:48:31.194Z,1006.19
2017-04-01T13:49:41.487Z,1006.18
2017-04-01T13:50:51.760Z,1006.18
2017-04-01T13:52:02.044Z,1006.17
2017-04-01T13:53:12.018Z,1006.15
2017-04-01T13:54:21.988Z,1006.13
2017-04-01T13:55:31.958Z,1006.12
2017-04-01T13:56:42.192Z,1006.11
2017-04-01T13:57:52.179Z,1006.1
2017-04-01T13:59:02.166Z,1006.07
2017-04-01T14:00:12.446Z,1006.01
2017-04-01T14:01:22.730Z,1005.98
2017-04-01T14:02:33.327Z,1006.02
2017-04-01T14:03:43.297Z,1006.01
2017-04-01T14:04:53.586Z,1005.98
2017-04-01T14:06:03.880Z,1005.98
2017-04-01T14:07:14.181Z,1005.94
2017-04-01T14:08:24.710Z,1005.96
2017-04-01T14:09:34.984Z,1005.91
2017-04-01T14:10:45.256Z,1005.92
2017-04-01T14:11:55.234Z,1005.93
2017-04-01T14:13:05.209Z,1005.87
2017-04-01T14:14:15.441Z,1005.88